Time;durP1;ratioP1;P1;durP2;ratioP2;P2;SDS_P1;SDS_P2;PMS_P1;PMS_P2;Temp;Humidity;BMP_temperature;BMP_pressure;BME280_temperature;BME280_humidity;BME280_pressure;Samples;Min_cycle;Max_cycle;Signal;HPM_P1;HPM_P2
2022/04/24 00:01:14;;;;;;;;;;;11.70;63.60;;;;;;5051495;28;19901;-74
2022/04/24 00:03:40;;;;;;;;;;;11.70;63.70;;;;;;5051123;28;19919;-73
2022/04/24 00:06:09;;;;;;;;;;;11.80;63.70;;;;;;5050955;28;20353;-74
2022/04/24 00:08:34;;;;;;;;;;;11.80;63.80;;;;;;5051190;28;19908;-75
2022/04/24 00:11:00;;;;;;;;;;;11.80;63.90;;;;;;5051031;28;19905;-74
2022/04/24 00:13:25;;;;;;;;;;;11.70;63.90;;;;;;5051447;28;19901;-73
2022/04/24 00:15:51;;;;;;;;;;;11.70;64.00;;;;;;5051028;28;19983;-74
2022/04/24 00:18:16;;;;;;;;;;;11.70;64.20;;;;;;5050846;28;20047;-74
2022/04/24 00:20:42;;;;;;;;;;;11.60;64.30;;;;;;5050865;28;19963;-74
2022/04/24 00:23:08;;;;;;;;;;;11.60;64.20;;;;;;5050821;28;19915;-74
2022/04/24 00:25:33;;;;;;;;;;;11.60;64.20;;;;;;5051231;28;19900;-74
2022/04/24 00:28:00;;;;;;;;;;;11.60;64.50;;;;;;5053110;28;20020;-74
2022/04/24 00:30:26;;;;;;;;;;;11.60;64.80;;;;;;5054619;28;19940;-74
2022/04/24 00:32:52;;;;;;;;;;;11.60;64.80;;;;;;5054426;28;20037;-74
2022/04/24 00:35:17;;;;;;;;;;;11.60;64.70;;;;;;5054469;28;19923;-74
2022/04/24 00:37:43;;;;;;;;;;;11.60;64.70;;;;;;5054694;28;19943;-74
2022/04/24 00:40:12;;;;;;;;;;;11.60;65.00;;;;;;5053303;28;19974;-73
2022/04/24 00:42:37;;;;;;;;;;;11.50;65.00;;;;;;5053250;28;19913;-75
2022/04/24 00:45:03;;;;;;;;;;;11.50;65.20;;;;;;5054500;28;20224;-74
2022/04/24 00:47:29;;;;;;;;;;;11.40;65.50;;;;;;5054052;28;19917;-74
2022/04/24 00:49:54;;;;;;;;;;;11.40;65.90;;;;;;5054263;28;19915;-73
2022/04/24 00:52:20;;;;;;;;;;;11.30;65.80;;;;;;5054663;28;19901;-74
2022/04/24 00:54:45;;;;;;;;;;;11.40;66.00;;;;;;5054062;28;20295;-74
2022/04/24 00:57:12;;;;;;;;;;;11.30;66.20;;;;;;5052994;28;19913;-74
2022/04/24 00:59:38;;;;;;;;;;;11.20;66.70;;;;;;5054132;28;19916;-74
2022/04/24 01:02:04;;;;;;;;;;;11.20;66.80;;;;;;5053914;28;19936;-74
2022/04/24 01:04:30;;;;;;;;;;;11.10;66.90;;;;;;5054354;28;19943;-75
2022/04/24 01:06:55;;;;;;;;;;;11.20;67.10;;;;;;5054001;28;19962;-74
2022/04/24 01:09:22;;;;;;;;;;;11.10;67.40;;;;;;5052760;28;19995;-74
2022/04/24 01:11:48;;;;;;;;;;;11.10;67.40;;;;;;5052750;28;19909;-74
2022/04/24 01:14:16;;;;;;;;;;;11.00;67.60;;;;;;5053554;28;20378;-73
2022/04/24 01:16:42;;;;;;;;;;;11.00;67.60;;;;;;5054312;28;19909;-75
2022/04/24 01:19:08;;;;;;;;;;;11.00;68.00;;;;;;5053818;28;19908;-75
2022/04/24 01:21:34;;;;;;;;;;;10.90;68.30;;;;;;5053685;28;19990;-75
2022/04/24 01:24:00;;;;;;;;;;;10.90;68.60;;;;;;5052693;28;19916;-75
2022/04/24 01:26:25;;;;;;;;;;;10.80;69.00;;;;;;5053252;28;20029;-75
2022/04/24 01:28:50;;;;;;;;;;;10.80;68.90;;;;;;5053586;28;20426;-74
2022/04/24 01:31:22;;;;;;;;;;;10.80;69.20;;;;;;5054273;28;19900;-74
2022/04/24 01:33:48;;;;;;;;;;;10.70;69.50;;;;;;5052342;28;20247;-75
2022/04/24 01:36:19;;;;;;;;;;;10.70;69.70;;;;;;5053417;28;19920;-75
2022/04/24 01:38:45;;;;;;;;;;;10.60;69.70;;;;;;5051925;28;19928;-75
2022/04/24 01:41:16;;;;;;;;;;;10.70;69.90;;;;;;5053353;28;20412;-74
2022/04/24 01:43:42;;;;;;;;;;;10.70;69.90;;;;;;5052554;28;20262;-73
2022/04/24 01:46:27;;;;;;;;;;;10.70;70.10;;;;;;5052955;28;19909;-74
2022/04/24 01:48:53;;;;;;;;;;;10.70;70.30;;;;;;5053066;28;19909;-74
2022/04/24 01:51:21;;;;;;;;;;;10.60;70.70;;;;;;5053201;28;19920;-74
2022/04/24 01:53:47;;;;;;;;;;;10.60;70.60;;;;;;5053115;28;19991;-75
2022/04/24 01:56:20;;;;;;;;;;;10.60;70.80;;;;;;5053037;28;19999;-74
2022/04/24 01:58:46;;;;;;;;;;;10.50;70.80;;;;;;5053275;28;19916;-74
2022/04/24 02:01:23;;;;;;;;;;;10.50;71.00;;;;;;5052968;28;19912;-75
2022/04/24 02:03:49;;;;;;;;;;;10.50;70.80;;;;;;5052851;28;19936;-75
2022/04/24 02:06:20;;;;;;;;;;;10.50;71.00;;;;;;5051966;28;20331;-74
2022/04/24 02:08:46;;;;;;;;;;;10.50;71.30;;;;;;5052915;28;19912;-75
2022/04/24 02:11:21;;;;;;;;;;;10.40;71.90;;;;;;5052758;28;19909;-74
2022/04/24 02:13:46;;;;;;;;;;;10.30;72.20;;;;;;5053471;28;19913;-75
2022/04/24 02:16:26;;;;;;;;;;;10.20;72.50;;;;;;5052680;28;20004;-75
2022/04/24 02:18:51;;;;;;;;;;;10.20;72.60;;;;;;5051498;28;20267;-75
2022/04/24 02:21:23;;;;;;;;;;;10.20;73.10;;;;;;5052410;28;19996;-75
2022/04/24 02:23:49;;;;;;;;;;;10.20;72.70;;;;;;5052536;28;19983;-75
2022/04/24 02:26:17;;;;;;;;;;;10.10;73.20;;;;;;5052246;28;20000;-75
2022/04/24 02:28:42;;;;;;;;;;;10.10;73.50;;;;;;5052914;28;19988;-75
2022/04/24 02:31:26;;;;;;;;;;;10.10;73.40;;;;;;5052387;28;19999;-75
2022/04/24 02:33:52;;;;;;;;;;;10.10;73.70;;;;;;5052397;28;19935;-76
2022/04/24 02:36:20;;;;;;;;;;;10.10;73.60;;;;;;5052238;28;20358;-75
2022/04/24 02:38:46;;;;;;;;;;;10.10;73.60;;;;;;5051728;28;20343;-75
2022/04/24 02:41:29;;;;;;;;;;;10.10;73.90;;;;;;5052132;28;19923;-75
2022/04/24 02:43:55;;;;;;;;;;;10.00;74.10;;;;;;5052046;28;19912;-75
2022/04/24 02:46:26;;;;;;;;;;;10.10;74.20;;;;;;5052496;28;19908;-75
2022/04/24 02:48:52;;;;;;;;;;;10.10;74.30;;;;;;5051757;28;19912;-76
2022/04/24 02:51:24;;;;;;;;;;;10.10;74.20;;;;;;5051968;28;20269;-75
2022/04/24 02:53:49;;;;;;;;;;;10.00;74.70;;;;;;5051860;28;20051;-75
2022/04/24 02:56:14;;;;;;;;;;;10.00;74.70;;;;;;5051811;28;20058;-75
2022/04/24 02:58:40;;;;;;;;;;;10.00;75.10;;;;;;5051637;28;19963;-76
2022/04/24 03:01:05;;;;;;;;;;;10.00;75.10;;;;;;5052034;28;20219;-75
2022/04/24 03:03:31;;;;;;;;;;;10.00;75.30;;;;;;5052250;28;19920;-76
2022/04/24 03:05:57;;;;;;;;;;;10.00;75.40;;;;;;5051947;28;19909;-74
2022/04/24 03:08:22;;;;;;;;;;;10.10;75.50;;;;;;5051522;28;19913;-75
2022/04/24 03:10:48;;;;;;;;;;;9.90;76.80;;;;;;5051389;28;19999;-74
2022/04/24 03:13:14;;;;;;;;;;;9.90;77.10;;;;;;5050637;28;19909;-75
2022/04/24 03:15:39;;;;;;;;;;;9.90;77.20;;;;;;5051619;28;19988;-74
2022/04/24 03:18:05;;;;;;;;;;;9.90;77.50;;;;;;5051625;28;20447;-74
2022/04/24 03:20:31;;;;;;;;;;;9.90;77.80;;;;;;5051625;28;19915;-74
2022/04/24 03:22:56;;;;;;;;;;;9.80;77.50;;;;;;5051565;28;19970;-74
2022/04/24 03:25:22;;;;;;;;;;;9.80;78.00;;;;;;5051934;28;19911;-75
2022/04/24 03:27:47;;;;;;;;;;;9.80;78.30;;;;;;5051434;28;19913;-73
2022/04/24 03:30:13;;;;;;;;;;;9.80;78.40;;;;;;5051302;28;19936;-75
2022/04/24 03:32:39;;;;;;;;;;;9.80;78.40;;;;;;5051643;28;20400;-75
2022/04/24 03:35:05;;;;;;;;;;;9.90;78.70;;;;;;5051397;28;19915;-75
2022/04/24 03:37:31;;;;;;;;;;;9.90;78.60;;;;;;5051744;28;19916;-74
2022/04/24 03:39:57;;;;;;;;;;;9.90;78.80;;;;;;5051295;28;20327;-74
2022/04/24 03:42:25;;;;;;;;;;;9.80;79.10;;;;;;5051591;28;19990;-74
2022/04/24 03:44:52;;;;;;;;;;;9.80;79.20;;;;;;5051548;28;19965;-74
2022/04/24 03:47:19;;;;;;;;;;;9.80;79.70;;;;;;5051204;28;19914;-75
2022/04/24 03:49:44;;;;;;;;;;;9.80;79.70;;;;;;5051765;28;19911;-75
2022/04/24 03:52:11;;;;;;;;;;;9.70;79.90;;;;;;5051362;28;20246;-74
2022/04/24 03:54:37;;;;;;;;;;;9.70;80.90;;;;;;5051267;28;19912;-74
2022/04/24 03:57:02;;;;;;;;;;;9.70;80.50;;;;;;5051229;28;19920;-75
2022/04/24 03:59:29;;;;;;;;;;;9.70;80.90;;;;;;5051128;28;19920;-74
2022/04/24 04:01:54;;;;;;;;;;;9.60;81.00;;;;;;5052923;28;20258;-74
2022/04/24 04:04:20;;;;;;;;;;;9.60;81.50;;;;;;5054529;28;19901;-74
2022/04/24 04:06:45;;;;;;;;;;;9.60;81.10;;;;;;5055085;28;19912;-73
2022/04/24 04:09:11;;;;;;;;;;;9.60;81.10;;;;;;5055080;28;19913;-74
2022/04/24 04:11:36;;;;;;;;;;;9.60;81.50;;;;;;5055107;28;20258;-74
2022/04/24 04:14:02;;;;;;;;;;;9.50;82.00;;;;;;5053930;28;20278;-74
2022/04/24 04:16:27;;;;;;;;;;;9.50;82.20;;;;;;5054218;28;19905;-74
2022/04/24 04:18:52;;;;;;;;;;;9.50;82.20;;;;;;5055006;28;19909;-74
2022/04/24 04:21:18;;;;;;;;;;;9.50;82.70;;;;;;5053597;28;19909;-75
2022/04/24 04:23:43;;;;;;;;;;;9.50;82.90;;;;;;5054827;28;19939;-74
2022/04/24 04:26:28;;;;;;;;;;;9.50;82.70;;;;;;5054904;28;20490;-75
2022/04/24 04:28:54;;;;;;;;;;;9.50;83.20;;;;;;5054743;28;20428;-75
2022/04/24 04:31:45;;;;;;;;;;;9.50;83.20;;;;;;5055052;28;19909;-76
2022/04/24 04:34:10;;;;;;;;;;;9.50;83.30;;;;;;5054612;28;19959;-75
2022/04/24 04:36:36;;;;;;;;;;;9.50;83.10;;;;;;5054474;28;19956;-75
2022/04/24 04:39:02;;;;;;;;;;;9.50;83.60;;;;;;5053440;28;19924;-75
2022/04/24 04:41:27;;;;;;;;;;;9.50;83.50;;;;;;5054358;28;19908;-75
2022/04/24 04:43:52;;;;;;;;;;;9.50;83.40;;;;;;5053461;28;19905;-74
2022/04/24 04:46:18;;;;;;;;;;;9.50;83.60;;;;;;5055045;28;20322;-75
2022/04/24 04:48:43;;;;;;;;;;;9.60;84.10;;;;;;5054371;28;19951;-75
2022/04/24 04:51:15;;;;;;;;;;;9.60;84.00;;;;;;5054233;28;19913;-74
2022/04/24 04:53:40;;;;;;;;;;;9.60;83.70;;;;;;5054244;28;19966;-74
2022/04/24 04:56:06;;;;;;;;;;;9.60;83.60;;;;;;5054134;28;19908;-74
2022/04/24 04:58:31;;;;;;;;;;;9.60;83.50;;;;;;5054624;28;19909;-75
2022/04/24 05:00:57;;;;;;;;;;;9.60;83.80;;;;;;5054116;28;19915;-75
2022/04/24 05:03:22;;;;;;;;;;;9.60;83.80;;;;;;5054194;28;19966;-75
2022/04/24 05:05:48;;;;;;;;;;;9.60;84.00;;;;;;5052982;28;19952;-75
2022/04/24 05:08:13;;;;;;;;;;;9.60;83.90;;;;;;5053822;28;19923;-75
2022/04/24 05:10:39;;;;;;;;;;;9.60;84.10;;;;;;5054378;28;19905;-75
2022/04/24 05:13:04;;;;;;;;;;;9.70;84.40;;;;;;5053540;28;19919;-75
2022/04/24 05:15:30;;;;;;;;;;;9.70;84.40;;;;;;5053874;28;19912;-75
2022/04/24 05:17:55;;;;;;;;;;;9.80;84.40;;;;;;5053969;28;19988;-75
2022/04/24 05:20:21;;;;;;;;;;;9.80;84.10;;;;;;5053862;28;20356;-74
2022/04/24 05:22:46;;;;;;;;;;;9.80;84.00;;;;;;5054235;28;20334;-74
2022/04/24 05:25:14;;;;;;;;;;;9.80;83.50;;;;;;5053581;28;19923;-76
2022/04/24 05:27:40;;;;;;;;;;;9.90;83.40;;;;;;5053606;28;19947;-75
2022/04/24 05:30:07;;;;;;;;;;;9.90;83.10;;;;;;5053628;28;19908;-76
2022/04/24 05:32:48;;;;;;;;;;;9.90;83.00;;;;;;5052551;28;19909;-75
2022/04/24 05:35:14;;;;;;;;;;;9.90;83.00;;;;;;5053505;28;19937;-74
2022/04/24 05:37:40;;;;;;;;;;;10.00;81.70;;;;;;5053361;28;20029;-74
2022/04/24 05:40:06;;;;;;;;;;;10.00;81.60;;;;;;5052229;28;19940;-75
2022/04/24 05:42:31;;;;;;;;;;;10.00;81.70;;;;;;5052389;28;19963;-74
2022/04/24 05:45:00;;;;;;;;;;;10.00;81.60;;;;;;5051146;28;20408;-75
2022/04/24 05:47:26;;;;;;;;;;;10.10;81.60;;;;;;5052348;28;20319;-76
2022/04/24 05:49:52;;;;;;;;;;;10.10;81.60;;;;;;5052251;28;19974;-75
2022/04/24 05:52:18;;;;;;;;;;;10.20;81.40;;;;;;5051590;28;19901;-76
2022/04/24 05:54:43;;;;;;;;;;;10.20;81.30;;;;;;5051987;28;19999;-76
2022/04/24 05:57:09;;;;;;;;;;;10.20;81.30;;;;;;5050805;28;20335;-74
2022/04/24 05:59:34;;;;;;;;;;;10.20;81.30;;;;;;5051937;28;19908;-75
2022/04/24 06:01:59;;;;;;;;;;;10.30;81.20;;;;;;5051977;28;19912;-74
2022/04/24 06:04:26;;;;;;;;;;;10.30;81.00;;;;;;5052332;28;19913;-74
2022/04/24 06:06:52;;;;;;;;;;;10.30;81.20;;;;;;5051752;28;20261;-75
2022/04/24 06:09:18;;;;;;;;;;;10.40;81.10;;;;;;5051801;28;19909;-75
2022/04/24 06:11:44;;;;;;;;;;;10.60;81.10;;;;;;5051799;28;19913;-75
2022/04/24 06:14:09;;;;;;;;;;;10.60;80.70;;;;;;5050558;28;19920;-75
2022/04/24 06:16:36;;;;;;;;;;;10.60;80.70;;;;;;5052131;28;19983;-75
2022/04/24 06:19:01;;;;;;;;;;;10.70;80.70;;;;;;5050717;28;19971;-75
2022/04/24 06:21:27;;;;;;;;;;;10.80;80.30;;;;;;5051896;28;19933;-75
2022/04/24 06:23:52;;;;;;;;;;;10.90;79.90;;;;;;5049918;28;19913;-75
2022/04/24 06:26:33;;;;;;;;;;;11.10;79.70;;;;;;5051756;28;19966;-74
2022/04/24 06:28:58;;;;;;;;;;;11.20;79.40;;;;;;5051475;28;20397;-74
2022/04/24 06:31:24;;;;;;;;;;;11.20;78.70;;;;;;5051948;28;19932;-74
2022/04/24 06:33:49;;;;;;;;;;;11.40;78.70;;;;;;5050284;28;19912;-74
2022/04/24 06:36:21;;;;;;;;;;;11.40;78.10;;;;;;5051263;28;19909;-74
2022/04/24 06:38:47;;;;;;;;;;;11.40;77.90;;;;;;5044774;28;176830;-75
2022/04/24 06:41:24;;;;;;;;;;;11.40;78.00;;;;;;5052027;28;19999;-75
2022/04/24 06:43:49;;;;;;;;;;;11.40;78.00;;;;;;5051095;28;19909;-73
2022/04/24 06:46:30;;;;;;;;;;;11.40;77.80;;;;;;5052434;28;19931;-75
2022/04/24 06:48:56;;;;;;;;;;;11.40;77.70;;;;;;5052045;28;19943;-74
2022/04/24 06:51:30;;;;;;;;;;;11.50;77.70;;;;;;5051940;28;19916;-75
2022/04/24 06:53:56;;;;;;;;;;;11.50;77.60;;;;;;5052040;28;19920;-75
2022/04/24 06:56:27;;;;;;;;;;;11.60;77.40;;;;;;5052015;28;19912;-75
2022/04/24 06:58:55;;;;;;;;;;;11.70;77.30;;;;;;5051035;28;20002;-74
2022/04/24 07:01:27;;;;;;;;;;;11.70;76.90;;;;;;5051182;28;20346;-74
2022/04/24 07:03:53;;;;;;;;;;;11.80;77.00;;;;;;5051845;28;20494;-74
2022/04/24 07:06:20;;;;;;;;;;;11.90;76.90;;;;;;5051651;28;19916;-74
2022/04/24 07:08:46;;;;;;;;;;;12.00;76.90;;;;;;5051654;28;20365;-73
2022/04/24 07:11:40;;;;;;;;;;;12.00;76.60;;;;;;5051904;28;19921;-74
2022/04/24 07:14:06;;;;;;;;;;;12.10;76.60;;;;;;5051639;28;20402;-74
2022/04/24 07:16:33;;;;;;;;;;;12.20;76.60;;;;;;5052724;28;19912;-74
2022/04/24 07:18:59;;;;;;;;;;;12.30;76.10;;;;;;5051579;28;19908;-74
2022/04/24 07:21:25;;;;;;;;;;;12.30;75.80;;;;;;5051452;28;19908;-72
2022/04/24 07:23:50;;;;;;;;;;;12.40;75.60;;;;;;5051665;28;20348;-74
2022/04/24 07:26:31;;;;;;;;;;;12.60;75.40;;;;;;5051537;28;19956;-74
2022/04/24 07:28:56;;;;;;;;;;;12.70;75.00;;;;;;5051627;28;19921;-73
2022/04/24 07:31:22;;;;;;;;;;;12.70;74.90;;;;;;5051916;28;20292;-74
2022/04/24 07:33:47;;;;;;;;;;;12.90;74.50;;;;;;5051026;28;19955;-73
2022/04/24 07:36:28;;;;;;;;;;;13.20;74.30;;;;;;5050378;28;19988;-73
2022/04/24 07:38:57;;;;;;;;;;;13.80;73.50;;;;;;5049987;28;20295;-75
2022/04/24 07:41:26;;;;;;;;;;;14.40;72.20;;;;;;5051264;28;19916;-74
2022/04/24 07:43:51;;;;;;;;;;;15.00;71.10;;;;;;5051516;28;19965;-74
2022/04/24 07:46:32;;;;;;;;;;;15.60;68.40;;;;;;5051701;28;19999;-73
2022/04/24 07:48:57;;;;;;;;;;;16.30;67.10;;;;;;5051288;28;19943;-74
2022/04/24 07:51:24;;;;;;;;;;;17.20;64.50;;;;;;5051124;28;20311;-76
2022/04/24 07:53:50;;;;;;;;;;;18.00;62.80;;;;;;5051137;28;19912;-75
2022/04/24 07:56:21;;;;;;;;;;;18.70;60.30;;;;;;5051112;28;19927;-74
2022/04/24 07:58:47;;;;;;;;;;;19.00;58.70;;;;;;5051426;28;19920;-75
2022/04/24 08:01:30;;;;;;;;;;;19.50;57.90;;;;;;5051128;28;19908;-75
2022/04/24 08:03:56;;;;;;;;;;;20.00;56.80;;;;;;5051073;28;19909;-74
2022/04/24 08:06:31;;;;;;;;;;;20.70;55.30;;;;;;5050967;28;20003;-75
2022/04/24 08:08:56;;;;;;;;;;;20.60;54.00;;;;;;5051120;28;20211;-74
2022/04/24 08:11:21;;;;;;;;;;;20.10;54.10;;;;;;5050868;28;20306;-74
2022/04/24 08:13:47;;;;;;;;;;;20.00;54.40;;;;;;5051584;28;20325;-74
2022/04/24 08:16:26;;;;;;;;;;;20.40;53.90;;;;;;5051003;28;19999;-75
2022/04/24 08:18:52;;;;;;;;;;;20.60;53.60;;;;;;5051026;28;20350;-75
2022/04/24 08:21:27;;;;;;;;;;;20.70;53.00;;;;;;5050868;28;20242;-75
2022/04/24 08:23:52;;;;;;;;;;;20.70;53.00;;;;;;5050756;28;20003;-75
2022/04/24 08:26:36;;;;;;;;;;;21.40;52.30;;;;;;5050743;28;20003;-75
2022/04/24 08:29:01;;;;;;;;;;;22.00;51.50;;;;;;5050737;28;19939;-73
2022/04/24 08:31:27;;;;;;;;;;;22.80;50.20;;;;;;5051197;28;19942;-73
2022/04/24 08:33:57;;;;;;;;;;;23.20;49.10;;;;;;5050820;28;19919;-74
2022/04/24 08:36:28;;;;;;;;;;;23.60;48.20;;;;;;5050750;28;19913;-73
2022/04/24 08:38:54;;;;;;;;;;;24.30;47.50;;;;;;5050601;28;20008;-75
2022/04/24 08:41:30;;;;;;;;;;;24.90;46.50;;;;;;5050556;28;20003;-74
2022/04/24 08:43:55;;;;;;;;;;;25.30;45.60;;;;;;5050641;28;19904;-73
2022/04/24 08:46:22;;;;;;;;;;;25.70;44.00;;;;;;5051100;28;19904;-74
2022/04/24 08:48:47;;;;;;;;;;;25.80;43.70;;;;;;5053586;28;19916;-73
2022/04/24 08:51:22;;;;;;;;;;;26.10;43.20;;;;;;5054234;28;19967;-73
2022/04/24 08:53:48;;;;;;;;;;;26.40;42.80;;;;;;5054206;28;19909;-74
2022/04/24 08:56:25;;;;;;;;;;;26.90;41.80;;;;;;5054053;28;19974;-73
2022/04/24 08:58:51;;;;;;;;;;;26.30;41.80;;;;;;5054683;28;19912;-75
2022/04/24 09:01:23;;;;;;;;;;;26.80;41.70;;;;;;5054840;28;19904;-73
2022/04/24 09:03:49;;;;;;;;;;;27.00;41.20;;;;;;5053962;28;19962;-74
2022/04/24 09:06:32;;;;;;;;;;;27.00;40.60;;;;;;5052908;28;19909;-74
2022/04/24 09:09:05;;;;;;;;;;;27.70;40.30;;;;;;5053859;28;19912;-74
2022/04/24 09:11:34;;;;;;;;;;;27.40;40.00;;;;;;5053951;28;19966;-75
2022/04/24 09:14:20;;;;;;;;;;;27.60;39.90;;;;;;5053915;28;19905;-74
2022/04/24 09:16:47;;;;;;;;;;;28.00;39.10;;;;;;5054215;28;19928;-75
2022/04/24 09:19:16;;;;;;;;;;;28.00;38.60;;;;;;5053718;28;19909;-75
2022/04/24 09:21:41;;;;;;;;;;;28.00;38.50;;;;;;5052455;28;19919;-75
2022/04/24 09:24:07;;;;;;;;;;;28.00;38.50;;;;;;5052582;28;19928;-75
2022/04/24 09:26:33;;;;;;;;;;;28.60;38.10;;;;;;5053505;28;19909;-75
2022/04/24 09:28:59;;;;;;;;;;;29.20;37.30;;;;;;5053470;28;19952;-75
2022/04/24 09:31:43;;;;;;;;;;;29.40;36.80;;;;;;5054012;28;19940;-75
2022/04/24 09:34:09;;;;;;;;;;;29.60;36.80;;;;;;5053203;28;20253;-75
2022/04/24 09:36:35;;;;;;;;;;;29.60;36.10;;;;;;5053401;28;20035;-76
2022/04/24 09:39:00;;;;;;;;;;;29.10;36.70;;;;;;5053227;28;20346;-76
2022/04/24 09:41:26;;;;;;;;;;;29.00;36.80;;;;;;5053388;28;19916;-76
2022/04/24 09:43:51;;;;;;;;;;;28.10;37.20;;;;;;5053269;28;19908;-73
2022/04/24 09:46:27;;;;;;;;;;;27.60;37.80;;;;;;5053753;28;20352;-76
2022/04/24 09:48:53;;;;;;;;;;;27.20;38.20;;;;;;5052934;28;19913;-73
2022/04/24 09:51:20;;;;;;;;;;;26.70;38.70;;;;;;5051837;28;19948;-74
2022/04/24 09:53:49;;;;;;;;;;;26.40;39.10;;;;;;5052926;28;19909;-73
2022/04/24 09:56:27;;;;;;;;;;;26.20;39.30;;;;;;5052797;28;19909;-74
2022/04/24 09:58:54;;;;;;;;;;;25.80;39.70;;;;;;5052014;28;19987;-74
2022/04/24 10:01:22;;;;;;;;;;;25.20;40.50;;;;;;5053598;28;19954;-74
2022/04/24 10:03:49;;;;;;;;;;;24.50;41.60;;;;;;5052040;28;19912;-75
2022/04/24 10:06:23;;;;;;;;;;;24.10;41.80;;;;;;5052795;28;20325;-73
2022/04/24 10:08:52;;;;;;;;;;;23.30;42.60;;;;;;5052676;28;20007;-75
2022/04/24 10:11:30;;;;;;;;;;;23.00;43.10;;;;;;5052637;28;19920;-75
2022/04/24 10:13:59;;;;;;;;;;;22.70;43.70;;;;;;5052646;28;20370;-75
2022/04/24 10:16:57;;;;;;;;;;;22.40;44.20;;;;;;5052105;28;19901;-75
2022/04/24 10:19:23;;;;;;;;;;;22.10;44.90;;;;;;5040390;28;19920;-75
2022/04/24 10:21:52;;;;;;;;;;;21.90;45.30;;;;;;5051487;28;19908;-76
2022/04/24 10:24:17;;;;;;;;;;;21.80;45.60;;;;;;5051454;28;20277;-75
2022/04/24 10:26:51;;;;;;;;;;;21.50;45.90;;;;;;5052409;28;19909;-74
2022/04/24 10:29:16;;;;;;;;;;;21.30;46.40;;;;;;5052295;28;19960;-74
2022/04/24 10:31:46;;;;;;;;;;;21.20;46.70;;;;;;5052614;28;20294;-74
2022/04/24 10:34:13;;;;;;;;;;;21.00;47.00;;;;;;5052492;28;19924;-74
2022/04/24 10:36:55;;;;;;;;;;;20.80;47.20;;;;;;5052180;28;19915;-75
2022/04/24 10:39:22;;;;;;;;;;;20.80;47.10;;;;;;5052057;28;19931;-75
2022/04/24 10:41:57;;;;;;;;;;;21.00;47.20;;;;;;5051958;28;19912;-73
2022/04/24 10:44:23;;;;;;;;;;;20.70;47.40;;;;;;5052037;28;20338;-74
2022/04/24 10:46:50;;;;;;;;;;;20.40;48.00;;;;;;5051865;28;19909;-74
2022/04/24 10:49:16;;;;;;;;;;;20.30;48.20;;;;;;5052429;28;20000;-74
2022/04/24 10:51:43;;;;;;;;;;;20.30;48.30;;;;;;5051871;28;19913;-74
2022/04/24 10:54:13;;;;;;;;;;;20.40;48.20;;;;;;5051857;28;19909;-75
2022/04/24 10:56:49;;;;;;;;;;;20.70;48.10;;;;;;5052050;28;19995;-74
2022/04/24 10:59:16;;;;;;;;;;;20.80;47.90;;;;;;5051893;28;19919;-74
2022/04/24 11:01:51;;;;;;;;;;;20.80;48.10;;;;;;5052110;28;19919;-76
2022/04/24 11:04:17;;;;;;;;;;;20.60;47.80;;;;;;5051675;28;20409;-75
2022/04/24 11:06:53;;;;;;;;;;;20.50;48.10;;;;;;5051957;28;20338;-74
2022/04/24 11:09:19;;;;;;;;;;;20.50;47.90;;;;;;5051609;28;19909;-74
2022/04/24 11:11:49;;;;;;;;;;;20.70;47.40;;;;;;5051377;28;19951;-74
2022/04/24 11:14:22;;;;;;;;;;;20.50;47.60;;;;;;5051357;28;19911;-75
2022/04/24 11:16:52;;;;;;;;;;;20.60;47.70;;;;;;5050760;28;19940;-75
2022/04/24 11:19:21;;;;;;;;;;;20.50;47.60;;;;;;5051402;28;19923;-73
2022/04/24 11:21:47;;;;;;;;;;;20.30;47.50;;;;;;5051491;28;20247;-74
2022/04/24 11:24:12;;;;;;;;;;;20.20;47.80;;;;;;5051496;28;19920;-75
2022/04/24 11:26:38;;;;;;;;;;;20.30;47.70;;;;;;5051295;28;19908;-75
2022/04/24 11:29:09;;;;;;;;;;;20.20;47.90;;;;;;5051415;28;20358;-74
2022/04/24 11:31:35;;;;;;;;;;;20.30;48.10;;;;;;5050644;28;19928;-75
2022/04/24 11:34:01;;;;;;;;;;;20.40;47.80;;;;;;5049927;28;19988;-73
2022/04/24 11:36:34;;;;;;;;;;;20.50;47.50;;;;;;5051233;28;19948;-74
2022/04/24 11:39:01;;;;;;;;;;;20.80;47.30;;;;;;5049871;28;20315;-74
2022/04/24 11:41:27;;;;;;;;;;;20.80;47.40;;;;;;5051230;28;19917;-74
2022/04/24 11:43:59;;;;;;;;;;;20.90;47.30;;;;;;5050176;28;19983;-74
2022/04/24 11:51:53;;;;;;;;;;;20.80;47.00;;;;;;5050947;28;19970;-75
2022/04/24 11:54:19;;;;;;;;;;;20.70;47.10;;;;;;5049789;28;19913;-75
2022/04/24 11:56:48;;;;;;;;;;;20.60;46.80;;;;;;5051073;28;19974;-74
2022/04/24 11:59:19;;;;;;;;;;;20.40;47.30;;;;;;5049691;28;20302;-74
2022/04/24 12:01:45;;;;;;;;;;;20.40;47.20;;;;;;5051227;28;19905;-74
2022/04/24 12:04:17;;;;;;;;;;;20.40;47.30;;;;;;5050763;28;19913;-74
2022/04/24 12:06:43;;;;;;;;;;;20.20;48.00;;;;;;5049417;28;20484;-73
2022/04/24 12:09:10;;;;;;;;;;;20.40;48.30;;;;;;5050845;28;20007;-75
2022/04/24 12:11:35;;;;;;;;;;;20.50;48.00;;;;;;5049730;28;20392;-73
2022/04/24 12:14:05;;;;;;;;;;;20.60;47.70;;;;;;5050937;28;19908;-74
2022/04/24 12:16:32;;;;;;;;;;;20.70;47.80;;;;;;5051249;28;19908;-75
2022/04/24 12:18:59;;;;;;;;;;;20.80;47.30;;;;;;5050824;28;19908;-75
2022/04/24 12:21:25;;;;;;;;;;;20.60;47.40;;;;;;5050731;28;20275;-75
2022/04/24 12:23:54;;;;;;;;;;;20.60;47.70;;;;;;5052905;28;20365;-74
2022/04/24 12:26:20;;;;;;;;;;;20.40;47.50;;;;;;5054713;28;20330;-74
2022/04/24 12:28:47;;;;;;;;;;;20.50;47.50;;;;;;5054858;28;19952;-74
2022/04/24 12:31:26;;;;;;;;;;;20.60;47.60;;;;;;5054429;28;19913;-75
2022/04/24 12:33:52;;;;;;;;;;;20.50;47.70;;;;;;5053049;28;20212;-73
2022/04/24 12:36:18;;;;;;;;;;;20.60;47.70;;;;;;5054104;28;19919;-74
2022/04/24 12:38:57;;;;;;;;;;;20.60;47.60;;;;;;5054024;28;19921;-75
2022/04/24 12:41:30;;;;;;;;;;;20.60;47.60;;;;;;5053004;28;19909;-74
2022/04/24 12:43:58;;;;;;;;;;;20.40;47.90;;;;;;5054057;28;20338;-74
2022/04/24 12:46:24;;;;;;;;;;;20.30;48.10;;;;;;5054428;28;19931;-75
2022/04/24 12:48:53;;;;;;;;;;;20.40;48.40;;;;;;5053804;28;20378;-74
2022/04/24 12:51:53;;;;;;;;;;;20.40;48.40;;;;;;5054079;28;19919;-74
2022/04/24 12:54:18;;;;;;;;;;;20.30;48.40;;;;;;5053772;28;19909;-73
2022/04/24 12:56:44;;;;;;;;;;;20.30;48.80;;;;;;5054165;28;19935;-74
2022/04/24 12:59:10;;;;;;;;;;;20.30;48.50;;;;;;5053766;28;19966;-74
2022/04/24 13:01:36;;;;;;;;;;;20.00;48.60;;;;;;5054130;28;20011;-75
2022/04/24 13:04:03;;;;;;;;;;;19.90;48.90;;;;;;5053582;28;20291;-74
2022/04/24 13:06:29;;;;;;;;;;;20.00;49.00;;;;;;5053676;28;20262;-75
2022/04/24 13:08:54;;;;;;;;;;;20.10;49.10;;;;;;5053460;28;19997;-74
2022/04/24 13:11:32;;;;;;;;;;;20.00;48.90;;;;;;5052505;28;19916;-74
2022/04/24 13:13:58;;;;;;;;;;;19.80;49.00;;;;;;5053443;28;19934;-74
2022/04/24 13:19:09;;;;;;;;;;;19.50;49.80;;;;;;5053560;28;19923;-73
2022/04/24 13:21:35;;;;;;;;;;;19.60;49.90;;;;;;5053358;28;20008;-74
2022/04/24 13:24:01;;;;;;;;;;;19.60;50.00;;;;;;5053444;28;19992;-74
2022/04/24 13:26:26;;;;;;;;;;;19.70;49.90;;;;;;5052232;28;20352;-74
2022/04/24 13:28:52;;;;;;;;;;;19.70;50.00;;;;;;5053320;28;19912;-74
2022/04/24 13:31:17;;;;;;;;;;;19.70;50.00;;;;;;5053643;28;20506;-74
2022/04/24 13:33:43;;;;;;;;;;;19.60;50.20;;;;;;5053145;28;19908;-74
2022/04/24 13:36:09;;;;;;;;;;;19.50;50.40;;;;;;5052957;28;19919;-72
2022/04/24 13:38:34;;;;;;;;;;;19.40;50.40;;;;;;5052848;28;19920;-73
2022/04/24 13:41:05;;;;;;;;;;;19.30;50.50;;;;;;5053157;28;19909;-73
2022/04/24 13:43:32;;;;;;;;;;;19.40;50.80;;;;;;5053296;28;19912;-72
2022/04/24 13:45:58;;;;;;;;;;;19.40;50.20;;;;;;5052008;28;19998;-74
2022/04/24 13:48:24;;;;;;;;;;;19.50;50.10;;;;;;5051733;28;19960;-74
2022/04/24 13:50:50;;;;;;;;;;;19.40;50.40;;;;;;5052992;28;19913;-73
2022/04/24 13:53:16;;;;;;;;;;;19.40;50.60;;;;;;5052856;28;19909;-74
2022/04/24 13:55:42;;;;;;;;;;;19.30;50.50;;;;;;5053604;28;19909;-74
2022/04/24 13:58:08;;;;;;;;;;;19.20;50.50;;;;;;5052980;28;20412;-74
2022/04/24 14:00:34;;;;;;;;;;;19.20;50.50;;;;;;5052917;28;19917;-72
2022/04/24 14:03:00;;;;;;;;;;;19.20;50.30;;;;;;5052406;28;19940;-75
2022/04/24 14:05:26;;;;;;;;;;;19.00;50.50;;;;;;5051694;28;19987;-75
2022/04/24 14:07:52;;;;;;;;;;;18.90;51.00;;;;;;5051793;28;19951;-73
2022/04/24 14:10:18;;;;;;;;;;;18.70;51.30;;;;;;5052267;28;20337;-74
2022/04/24 14:12:44;;;;;;;;;;;18.70;51.50;;;;;;5052706;28;19984;-74
2022/04/24 14:15:10;;;;;;;;;;;18.70;51.80;;;;;;5052519;28;19920;-74
2022/04/24 14:17:35;;;;;;;;;;;18.60;52.20;;;;;;5052156;28;19908;-74
2022/04/24 14:20:01;;;;;;;;;;;18.60;52.10;;;;;;5052088;28;19904;-74
2022/04/24 14:22:27;;;;;;;;;;;18.60;52.80;;;;;;5052630;28;19908;-74
2022/04/24 14:24:53;;;;;;;;;;;18.60;52.10;;;;;;5052718;28;19909;-74
2022/04/24 14:27:19;;;;;;;;;;;18.50;51.70;;;;;;5052217;28;19912;-73
2022/04/24 14:29:45;;;;;;;;;;;18.50;51.40;;;;;;5052092;28;20322;-73
2022/04/24 14:32:12;;;;;;;;;;;18.60;51.40;;;;;;5051961;28;19909;-74